Time,TemperatureF,DewpointF,PressureIn,WindDirection,WindDirectionDegrees,WindSpeedMPH,WindSpeedGustMPH,Humidity,HourlyPrecipIn,Conditions,Clouds,dailyrainin,SolarRadiationWatts/m^2,SoftwareType,DateUTC
2013-07-05 00:01:00,50.0,33.0,-100.00,WSW,250,2.0,12.0,52,0.00,,,0.00,5.000000,,2013-07-05 04:01:00,
2013-07-05 00:33:00,48.0,35.0,-100.00,WNW,295,3.0,8.0,61,0.00,,,0.00,0.000000,,2013-07-05 04:33:00,
2013-07-05 00:43:00,48.0,35.0,-100.00,WNW,295,3.0,8.0,61,0.00,,,0.00,0.000000,,2013-07-05 04:43:00,
2013-07-05 00:53:00,48.0,35.0,-100.00,WNW,295,3.0,8.0,61,0.00,,,0.00,0.000000,,2013-07-05 04:53:00,
2013-07-05 01:01:00,48.0,35.0,-100.00,WNW,295,3.0,8.0,61,0.00,,,0.00,0.000000,,2013-07-05 05:01:00,
2013-07-05 01:33:00,46.0,36.0,-100.00,ENE,73,8.0,12.0,69,0.00,,,0.00,0.000000,,2013-07-05 05:33:00,
2013-07-05 01:43:00,46.0,36.0,-100.00,ENE,73,8.0,12.0,69,0.00,,,0.00,0.000000,,2013-07-05 05:43:00,
2013-07-05 01:52:00,46.0,36.0,-100.00,ENE,73,8.0,12.0,69,0.00,,,0.00,0.000000,,2013-07-05 05:52:00,
2013-07-05 02:02:00,46.0,36.0,-100.00,ENE,73,8.0,12.0,69,0.00,,,0.00,0.000000,,2013-07-05 06:02:00,
2013-07-05 02:34:00,46.0,35.0,-100.00,SE,142,2.0,7.0,66,0.00,,,0.00,0.000000,,2013-07-05 06:34:00,
2013-07-05 02:44:00,46.0,35.0,-100.00,SE,142,2.0,7.0,66,0.00,,,0.00,0.000000,,2013-07-05 06:44:00,
2013-07-05 02:53:00,46.0,35.0,-100.00,SE,142,2.0,7.0,66,0.00,,,0.00,0.000000,,2013-07-05 06:53:00,
2013-07-05 03:02:00,46.0,35.0,-100.00,SE,142,2.0,7.0,66,0.00,,,0.00,0.000000,,2013-07-05 07:02:00,
2013-07-05 03:34:00,47.0,34.0,-100.00,SSW,205,7.0,8.0,61,0.00,,,0.00,0.000000,,2013-07-05 07:34:00,
2013-07-05 03:43:00,47.0,34.0,-100.00,SSW,205,7.0,8.0,61,0.00,,,0.00,0.000000,,2013-07-05 07:43:00,
2013-07-05 03:53:00,47.0,34.0,-100.00,SSW,205,7.0,8.0,61,0.00,,,0.00,0.000000,,2013-07-05 07:53:00,
2013-07-05 04:02:00,47.0,34.0,-100.00,SSW,205,7.0,8.0,61,0.00,,,0.00,0.000000,,2013-07-05 08:02:00,
2013-07-05 04:33:00,47.0,35.0,-100.00,SSW,212,9.0,12.0,63,0.00,,,0.00,0.000000,,2013-07-05 08:33:00,
2013-07-05 04:44:00,47.0,35.0,-100.00,SSW,212,9.0,12.0,63,0.00,,,0.00,0.000000,,2013-07-05 08:44:00,
2013-07-05 04:57:00,47.0,35.0,-100.00,SSW,212,9.0,12.0,63,0.00,,,0.00,0.000000,,2013-07-05 08:57:00,
2013-07-05 05:06:00,47.0,35.0,-100.00,SSW,212,9.0,12.0,63,0.00,,,0.00,0.000000,,2013-07-05 09:06:00,
2013-07-05 05:37:00,46.0,36.0,-100.00,SW,224,12.0,17.0,69,0.00,,,0.00,0.000000,,2013-07-05 09:37:00,
2013-07-05 05:48:00,46.0,36.0,-100.00,SW,224,12.0,17.0,69,0.00,,,0.00,0.000000,,2013-07-05 09:48:00,
2013-07-05 05:56:00,46.0,36.0,-100.00,SW,224,12.0,17.0,69,0.00,,,0.00,0.000000,,2013-07-05 09:56:00,
2013-07-05 06:38:00,46.0,36.0,-100.00,SW,215,8.0,18.0,67,0.01,,,0.01,0.000000,,2013-07-05 10:38:00,
2013-07-05 06:47:00,46.0,36.0,-100.00,SW,215,8.0,18.0,67,0.01,,,0.01,0.000000,,2013-07-05 10:47:00,
2013-07-05 06:57:00,46.0,36.0,-100.00,SW,215,8.0,18.0,67,0.01,,,0.01,0.000000,,2013-07-05 10:57:00,
2013-07-05 07:06:00,46.0,36.0,-100.00,SW,215,8.0,18.0,67,0.01,,,0.01,0.000000,,2013-07-05 11:06:00,
2013-07-05 07:38:00,43.0,37.0,-100.00,SW,220,7.0,17.0,78,0.00,,,0.01,0.000000,,2013-07-05 11:38:00,
2013-07-05 07:50:00,43.0,37.0,-100.00,SW,220,7.0,17.0,78,0.00,,,0.01,0.000000,,2013-07-05 11:50:00,
2013-07-05 08:00:00,43.0,37.0,-100.00,SW,220,7.0,17.0,78,0.00,,,0.01,0.000000,,2013-07-05 12:00:00,
2013-07-05 08:06:00,43.0,37.0,-100.00,SW,220,7.0,17.0,78,0.00,,,0.01,0.000000,,2013-07-05 12:06:00,
2013-07-05 08:38:00,43.0,36.0,-100.00,SSW,203,8.0,23.0,75,0.00,,,0.01,2.000000,,2013-07-05 12:38:00,
2013-07-05 08:50:00,43.0,36.0,-100.00,SSW,203,8.0,23.0,75,0.00,,,0.01,2.000000,,2013-07-05 12:50:00,
2013-07-05 08:59:00,43.0,36.0,-100.00,SSW,203,8.0,23.0,75,0.00,,,0.01,2.000000,,2013-07-05 12:59:00,
2013-07-05 09:05:00,43.0,36.0,-100.00,SSW,203,8.0,23.0,75,0.00,,,0.01,2.000000,,2013-07-05 13:05:00,
2013-07-05 09:39:00,44.0,35.0,-100.00,SW,220,12.0,20.0,71,0.00,,,0.01,38.000000,,2013-07-05 13:39:00,
2013-07-05 09:49:00,44.0,35.0,-100.00,SW,220,12.0,20.0,71,0.00,,,0.01,38.000000,,2013-07-05 13:49:00,
2013-07-05 09:58:00,44.0,35.0,-100.00,SW,220,12.0,20.0,71,0.00,,,0.01,38.000000,,2013-07-05 13:58:00,
2013-07-05 10:47:00,45.0,35.0,-100.00,SW,221,11.0,18.0,69,0.00,,,0.01,103.000000,,2013-07-05 14:47:00,
2013-07-05 10:57:00,45.0,35.0,-100.00,SW,221,11.0,18.0,69,0.00,,,0.01,103.000000,,2013-07-05 14:57:00,
2013-07-05 11:05:00,45.0,35.0,-100.00,SW,221,11.0,18.0,69,0.00,,,0.01,103.000000,,2013-07-05 15:05:00,
2013-07-05 11:34:00,50.0,36.0,-100.00,West,277,7.0,14.0,59,0.00,,,0.01,452.000000,,2013-07-05 15:34:00,
2013-07-05 11:43:00,50.0,36.0,-100.00,West,277,7.0,14.0,59,0.00,,,0.01,452.000000,,2013-07-05 15:43:00,
2013-07-05 12:02:00,50.0,36.0,-100.00,West,277,7.0,14.0,59,0.00,,,0.01,452.000000,,2013-07-05 16:02:00,
2013-07-05 12:33:00,55.0,38.0,-100.00,WNW,289,5.0,10.0,52,0.00,,,0.01,735.000000,,2013-07-05 16:33:00,
2013-07-05 12:44:00,55.0,38.0,-100.00,WNW,289,5.0,10.0,52,0.00,,,0.01,735.000000,,2013-07-05 16:44:00,
2013-07-05 12:53:00,55.0,38.0,-100.00,WNW,289,5.0,10.0,52,0.00,,,0.01,735.000000,,2013-07-05 16:53:00,
2013-07-05 13:02:00,55.0,38.0,-100.00,WNW,289,5.0,10.0,52,0.00,,,0.01,735.000000,,2013-07-05 17:02:00,
2013-07-05 13:33:00,56.0,37.0,-100.00,West,279,7.0,13.0,48,0.00,,,0.01,837.000000,,2013-07-05 17:33:00,
2013-07-05 13:43:00,56.0,37.0,-100.00,West,279,7.0,13.0,48,0.00,,,0.01,837.000000,,2013-07-05 17:43:00,
2013-07-05 13:53:00,56.0,37.0,-100.00,West,279,7.0,13.0,48,0.00,,,0.01,837.000000,,2013-07-05 17:53:00,
2013-07-05 14:01:00,56.0,37.0,-100.00,West,279,7.0,13.0,48,0.00,,,0.01,837.000000,,2013-07-05 18:01:00,
2013-07-05 14:33:00,58.0,36.0,-100.00,WSW,255,8.0,16.0,43,0.00,,,0.01,742.000000,,2013-07-05 18:33:00,
2013-07-05 14:43:00,58.0,36.0,-100.00,WSW,255,8.0,16.0,43,0.00,,,0.01,742.000000,,2013-07-05 18:43:00,
2013-07-05 14:53:00,58.0,36.0,-100.00,WSW,255,8.0,16.0,43,0.00,,,0.01,742.000000,,2013-07-05 18:53:00,
2013-07-05 15:01:00,58.0,36.0,-100.00,WSW,255,8.0,16.0,43,0.00,,,0.01,742.000000,,2013-07-05 19:01:00,
2013-07-05 15:34:00,58.0,35.0,-100.00,NW,322,5.0,19.0,42,0.00,,,0.01,586.000000,,2013-07-05 19:34:00,
2013-07-05 15:43:00,58.0,35.0,-100.00,NW,322,5.0,19.0,42,0.00,,,0.01,586.000000,,2013-07-05 19:43:00,
2013-07-05 15:53:00,58.0,35.0,-100.00,NW,322,5.0,19.0,42,0.00,,,0.01,586.000000,,2013-07-05 19:53:00,
2013-07-05 16:01:00,58.0,35.0,-100.00,NW,322,5.0,19.0,42,0.00,,,0.01,586.000000,,2013-07-05 20:01:00,
2013-07-05 16:33:00,55.0,40.0,-100.00,WNW,289,16.0,41.0,57,0.06,,,0.07,216.000000,,2013-07-05 20:33:00,
2013-07-05 16:43:00,55.0,40.0,-100.00,WNW,289,16.0,41.0,57,0.06,,,0.07,216.000000,,2013-07-05 20:43:00,
2013-07-05 16:53:00,55.0,40.0,-100.00,WNW,289,16.0,41.0,57,0.06,,,0.07,216.000000,,2013-07-05 20:53:00,
2013-07-05 17:01:00,55.0,40.0,-100.00,WNW,289,16.0,41.0,57,0.06,,,0.07,216.000000,,2013-07-05 21:01:00,
2013-07-05 17:34:00,52.0,37.0,-100.00,NW,312,18.0,29.0,56,0.00,,,0.07,391.000000,,2013-07-05 21:34:00,
2013-07-05 17:43:00,52.0,37.0,-100.00,NW,312,18.0,29.0,56,0.00,,,0.07,391.000000,,2013-07-05 21:43:00,
2013-07-05 17:53:00,52.0,37.0,-100.00,NW,312,18.0,29.0,56,0.00,,,0.07,391.000000,,2013-07-05 21:53:00,
2013-07-05 18:01:00,52.0,37.0,-100.00,NW,312,18.0,29.0,56,0.00,,,0.07,391.000000,,2013-07-05 22:01:00,
2013-07-05 18:34:00,53.0,39.0,-100.00,West,279,8.0,20.0,59,0.00,,,0.07,179.000000,,2013-07-05 22:34:00,
2013-07-05 18:43:00,53.0,39.0,-100.00,West,279,8.0,20.0,59,0.00,,,0.07,179.000000,,2013-07-05 22:43:00,
2013-07-05 18:53:00,53.0,39.0,-100.00,West,279,8.0,20.0,59,0.00,,,0.07,179.000000,,2013-07-05 22:53:00,
2013-07-05 19:02:00,53.0,39.0,-100.00,West,279,8.0,20.0,59,0.00,,,0.07,179.000000,,2013-07-05 23:02:00,
2013-07-05 19:32:00,51.0,40.0,-100.00,ENE,76,6.0,13.0,67,0.00,,,0.07,223.000000,,2013-07-05 23:32:00,
2013-07-05 19:43:00,51.0,40.0,-100.00,ENE,76,6.0,13.0,67,0.00,,,0.07,223.000000,,2013-07-05 23:43:00,
2013-07-05 19:53:00,51.0,40.0,-100.00,ENE,76,6.0,13.0,67,0.00,,,0.07,223.000000,,2013-07-05 23:53:00,
2013-07-05 20:01:00,51.0,40.0,-100.00,ENE,76,6.0,13.0,67,0.00,,,0.07,223.000000,,2013-07-06 00:01:00,
2013-07-05 20:33:00,51.0,38.0,-100.00,SSW,210,5.0,10.0,62,0.00,,,0.07,197.000000,,2013-07-06 00:33:00,
2013-07-05 20:43:00,51.0,38.0,-100.00,SSW,210,5.0,10.0,62,0.00,,,0.07,197.000000,,2013-07-06 00:43:00,
2013-07-05 20:53:00,51.0,38.0,-100.00,SSW,210,5.0,10.0,62,0.00,,,0.07,197.000000,,2013-07-06 00:53:00,
2013-07-05 21:02:00,51.0,38.0,-100.00,SSW,210,5.0,10.0,62,0.00,,,0.07,197.000000,,2013-07-06 01:02:00,
2013-07-05 21:33:00,52.0,39.0,-100.00,SW,229,9.0,13.0,60,0.00,,,0.07,174.000000,,2013-07-06 01:33:00,
2013-07-05 21:43:00,52.0,39.0,-100.00,SW,229,9.0,13.0,60,0.00,,,0.07,174.000000,,2013-07-06 01:43:00,
2013-07-05 21:53:00,52.0,39.0,-100.00,SW,229,9.0,13.0,60,0.00,,,0.07,174.000000,,2013-07-06 01:53:00,
2013-07-05 22:02:00,52.0,39.0,-100.00,SW,229,9.0,13.0,60,0.00,,,0.07,174.000000,,2013-07-06 02:02:00,
2013-07-05 22:34:00,50.0,36.0,-100.00,West,279,8.0,13.0,59,0.00,,,0.07,60.000000,,2013-07-06 02:34:00,
2013-07-05 22:43:00,50.0,36.0,-100.00,West,279,8.0,13.0,59,0.00,,,0.07,60.000000,,2013-07-06 02:43:00,
2013-07-05 22:53:00,50.0,36.0,-100.00,West,279,8.0,13.0,59,0.00,,,0.07,60.000000,,2013-07-06 02:53:00,
2013-07-05 23:02:00,50.0,36.0,-100.00,West,279,8.0,13.0,59,0.00,,,0.07,60.000000,,2013-07-06 03:02:00,
2013-07-05 23:34:00,48.0,36.0,-100.00,West,265,7.0,12.0,64,0.00,,,0.07,5.000000,,2013-07-06 03:34:00,
2013-07-05 23:43:00,48.0,36.0,-100.00,West,265,7.0,12.0,64,0.00,,,0.07,5.000000,,2013-07-06 03:43:00,
2013-07-05 23:53:00,48.0,36.0,-100.00,West,265,7.0,12.0,64,0.00,,,0.07,5.000000,,2013-07-06 03:53:00,